sensor_id;sensor_type;location;lat;lon;timestamp;pressure;altitude;pressure_sealevel;temperature
69435;BMP180;56625;54.322;18.582;2024-02-23T00:00:02;98228.00;;;7.80
69435;BMP180;56625;54.322;18.582;2024-02-23T00:02:34;98224.80;;;7.80
69435;BMP180;56625;54.322;18.582;2024-02-23T00:05:04;98229.20;;;7.80
69435;BMP180;56625;54.322;18.582;2024-02-23T00:07:32;98225.00;;;7.80
69435;BMP180;56625;54.322;18.582;2024-02-23T00:10:00;98219.00;;;7.80
69435;BMP180;56625;54.322;18.582;2024-02-23T00:12:28;98218.80;;;7.80
69435;BMP180;56625;54.322;18.582;2024-02-23T00:14:56;98212.80;;;7.80
69435;BMP180;56625;54.322;18.582;2024-02-23T00:17:25;98200.20;;;7.80
69435;BMP180;56625;54.322;18.582;2024-02-23T00:19:53;98188.20;;;7.80
69435;BMP180;56625;54.322;18.582;2024-02-23T00:22:21;98185.60;;;7.80
69435;BMP180;56625;54.322;18.582;2024-02-23T00:24:49;98177.20;;;7.82
69435;BMP180;56625;54.322;18.582;2024-02-23T00:27:18;98176.60;;;7.84
69435;BMP180;56625;54.322;18.582;2024-02-23T00:29:46;98176.60;;;7.88
69435;BMP180;56625;54.322;18.582;2024-02-23T00:32:14;98178.20;;;7.90
69435;BMP180;56625;54.322;18.582;2024-02-23T00:34:42;98175.60;;;7.90
69435;BMP180;56625;54.322;18.582;2024-02-23T00:37:10;98171.80;;;7.90
69435;BMP180;56625;54.322;18.582;2024-02-23T00:39:39;98177.80;;;7.90
69435;BMP180;56625;54.322;18.582;2024-02-23T00:42:07;98176.60;;;7.90
69435;BMP180;56625;54.322;18.582;2024-02-23T00:44:35;98175.40;;;7.90
69435;BMP180;56625;54.322;18.582;2024-02-23T00:47:04;98177.60;;;7.90
69435;BMP180;56625;54.322;18.582;2024-02-23T00:49:33;98168.40;;;7.92
69435;BMP180;56625;54.322;18.582;2024-02-23T00:52:01;98157.60;;;7.90
69435;BMP180;56625;54.322;18.582;2024-02-23T00:54:29;98153.20;;;7.96
69435;BMP180;56625;54.322;18.582;2024-02-23T00:56:56;98148.40;;;7.90
69435;BMP180;56625;54.322;18.582;2024-02-23T00:59:25;98150.20;;;7.92
69435;BMP180;56625;54.322;18.582;2024-02-23T01:01:55;98152.80;;;7.96
69435;BMP180;56625;54.322;18.582;2024-02-23T01:04:24;98157.80;;;8.00
69435;BMP180;56625;54.322;18.582;2024-02-23T01:06:52;98156.40;;;8.00
69435;BMP180;56625;54.322;18.582;2024-02-23T01:09:20;98156.20;;;8.00
69435;BMP180;56625;54.322;18.582;2024-02-23T01:11:49;98150.80;;;8.00
69435;BMP180;56625;54.322;18.582;2024-02-23T01:14:17;98142.40;;;8.00
69435;BMP180;56625;54.322;18.582;2024-02-23T01:16:45;98143.60;;;8.00
69435;BMP180;56625;54.322;18.582;2024-02-23T01:19:14;98135.20;;;8.00
69435;BMP180;56625;54.322;18.582;2024-02-23T01:21:44;98136.60;;;8.00
69435;BMP180;56625;54.322;18.582;2024-02-23T01:24:12;98131.20;;;8.00
69435;BMP180;56625;54.322;18.582;2024-02-23T01:26:40;98121.80;;;8.04
69435;BMP180;56625;54.322;18.582;2024-02-23T01:29:10;98125.80;;;8.10
69435;BMP180;56625;54.322;18.582;2024-02-23T01:31:38;98123.60;;;8.10
69435;BMP180;56625;54.322;18.582;2024-02-23T01:34:06;98125.20;;;8.10
69435;BMP180;56625;54.322;18.582;2024-02-23T01:36:34;98127.60;;;8.10
69435;BMP180;56625;54.322;18.582;2024-02-23T01:39:04;98129.20;;;8.10
69435;BMP180;56625;54.322;18.582;2024-02-23T01:41:33;98125.40;;;8.10
69435;BMP180;56625;54.322;18.582;2024-02-23T01:44:01;98122.20;;;8.10
69435;BMP180;56625;54.322;18.582;2024-02-23T01:46:30;98118.80;;;8.00
69435;BMP180;56625;54.322;18.582;2024-02-23T01:48:59;98113.40;;;8.00
69435;BMP180;56625;54.322;18.582;2024-02-23T01:51:27;98110.40;;;8.00
69435;BMP180;56625;54.322;18.582;2024-02-23T01:53:55;98118.20;;;8.00
69435;BMP180;56625;54.322;18.582;2024-02-23T01:56:24;98118.40;;;7.90
69435;BMP180;56625;54.322;18.582;2024-02-23T01:58:55;98115.60;;;7.90
69435;BMP180;56625;54.322;18.582;2024-02-23T02:01:23;98111.80;;;7.90
69435;BMP180;56625;54.322;18.582;2024-02-23T02:03:52;98112.40;;;7.90
69435;BMP180;56625;54.322;18.582;2024-02-23T02:06:20;98116.00;;;7.90
69435;BMP180;56625;54.322;18.582;2024-02-23T02:08:48;98112.20;;;7.90
69435;BMP180;56625;54.322;18.582;2024-02-23T02:11:17;98113.00;;;7.90
69435;BMP180;56625;54.322;18.582;2024-02-23T02:13:45;98118.20;;;7.90
69435;BMP180;56625;54.322;18.582;2024-02-23T02:16:13;98121.00;;;7.90
69435;BMP180;56625;54.322;18.582;2024-02-23T02:18:42;98120.40;;;7.90
69435;BMP180;56625;54.322;18.582;2024-02-23T02:21:12;98115.60;;;7.96
69435;BMP180;56625;54.322;18.582;2024-02-23T02:23:40;98117.20;;;8.00
69435;BMP180;56625;54.322;18.582;2024-02-23T02:26:09;98116.60;;;8.00
69435;BMP180;56625;54.322;18.582;2024-02-23T02:28:37;98121.00;;;8.00
69435;BMP180;56625;54.322;18.582;2024-02-23T02:31:05;98119.20;;;8.00
69435;BMP180;56625;54.322;18.582;2024-02-23T02:33:33;98113.80;;;7.96
69435;BMP180;56625;54.322;18.582;2024-02-23T02:36:02;98112.60;;;7.90
69435;BMP180;56625;54.322;18.582;2024-02-23T02:38:31;98114.40;;;7.90
69435;BMP180;56625;54.322;18.582;2024-02-23T02:41:01;98114.20;;;7.90
69435;BMP180;56625;54.322;18.582;2024-02-23T02:43:31;98111.60;;;7.90
69435;BMP180;56625;54.322;18.582;2024-02-23T02:45:59;98114.40;;;7.90
69435;BMP180;56625;54.322;18.582;2024-02-23T02:48:27;98116.60;;;7.90
69435;BMP180;56625;54.322;18.582;2024-02-23T02:50:55;98124.40;;;7.90
69435;BMP180;56625;54.322;18.582;2024-02-23T02:53:24;98128.60;;;7.90
69435;BMP180;56625;54.322;18.582;2024-02-23T02:55:52;98128.60;;;7.90
69435;BMP180;56625;54.322;18.582;2024-02-23T02:58:21;98135.40;;;7.90
69435;BMP180;56625;54.322;18.582;2024-02-23T03:00:49;98130.80;;;7.90
69435;BMP180;56625;54.322;18.582;2024-02-23T03:03:17;98126.00;;;7.90
69435;BMP180;56625;54.322;18.582;2024-02-23T03:05:45;98121.20;;;7.90
69435;BMP180;56625;54.322;18.582;2024-02-23T03:08:14;98113.20;;;7.90
69435;BMP180;56625;54.322;18.582;2024-02-23T03:10:42;98103.40;;;7.90
69435;BMP180;56625;54.322;18.582;2024-02-23T03:13:10;98109.00;;;7.90
69435;BMP180;56625;54.322;18.582;2024-02-23T03:15:38;98110.60;;;7.90
69435;BMP180;56625;54.322;18.582;2024-02-23T03:18:06;98111.60;;;7.90
69435;BMP180;56625;54.322;18.582;2024-02-23T03:20:37;98107.20;;;7.90
69435;BMP180;56625;54.322;18.582;2024-02-23T03:23:06;98117.40;;;7.90
69435;BMP180;56625;54.322;18.582;2024-02-23T03:25:34;98122.40;;;7.90
69435;BMP180;56625;54.322;18.582;2024-02-23T03:28:02;98110.20;;;7.90
69435;BMP180;56625;54.322;18.582;2024-02-23T03:30:31;98117.00;;;7.90
69435;BMP180;56625;54.322;18.582;2024-02-23T03:33:03;98123.00;;;7.90
69435;BMP180;56625;54.322;18.582;2024-02-23T03:35:31;98114.20;;;7.90
69435;BMP180;56625;54.322;18.582;2024-02-23T03:38:00;98114.60;;;7.90
69435;BMP180;56625;54.322;18.582;2024-02-23T03:40:28;98108.40;;;7.90
69435;BMP180;56625;54.322;18.582;2024-02-23T03:42:56;98116.40;;;7.90
69435;BMP180;56625;54.322;18.582;2024-02-23T03:45:25;98122.80;;;7.96
69435;BMP180;56625;54.322;18.582;2024-02-23T03:47:53;98132.80;;;7.96
69435;BMP180;56625;54.322;18.582;2024-02-23T03:50:22;98136.60;;;8.00
69435;BMP180;56625;54.322;18.582;2024-02-23T03:52:50;98130.60;;;8.00
69435;BMP180;56625;54.322;18.582;2024-02-23T03:55:18;98137.00;;;8.00
69435;BMP180;56625;54.322;18.582;2024-02-23T03:57:46;98138.80;;;8.00
69435;BMP180;56625;54.322;18.582;2024-02-23T04:00:15;98145.40;;;8.00
69435;BMP180;56625;54.322;18.582;2024-02-23T04:02:43;98143.80;;;8.00
69435;BMP180;56625;54.322;18.582;2024-02-23T04:05:11;98142.00;;;8.00
69435;BMP180;56625;54.322;18.582;2024-02-23T04:07:41;98148.80;;;8.00
69435;BMP180;56625;54.322;18.582;2024-02-23T04:10:09;98147.80;;;8.00
69435;BMP180;56625;54.322;18.582;2024-02-23T04:12:37;98147.40;;;8.00
69435;BMP180;56625;54.322;18.582;2024-02-23T04:15:05;98151.00;;;8.00
69435;BMP180;56625;54.322;18.582;2024-02-23T04:17:33;98156.40;;;8.00
69435;BMP180;56625;54.322;18.582;2024-02-23T04:20:07;98160.20;;;8.00
69435;BMP180;56625;54.322;18.582;2024-02-23T04:22:37;98158.20;;;8.00
69435;BMP180;56625;54.322;18.582;2024-02-23T04:25:06;98159.00;;;8.06
69435;BMP180;56625;54.322;18.582;2024-02-23T04:27:34;98164.00;;;8.10
69435;BMP180;56625;54.322;18.582;2024-02-23T04:30:04;98163.00;;;8.10
69435;BMP180;56625;54.322;18.582;2024-02-23T04:32:32;98161.00;;;8.10
69435;BMP180;56625;54.322;18.582;2024-02-23T04:35:01;98165.00;;;8.10
69435;BMP180;56625;54.322;18.582;2024-02-23T04:37:30;98166.80;;;8.10
69435;BMP180;56625;54.322;18.582;2024-02-23T04:40:03;98172.20;;;8.18
69435;BMP180;56625;54.322;18.582;2024-02-23T04:42:33;98171.00;;;8.20
69435;BMP180;56625;54.322;18.582;2024-02-23T04:45:02;98167.20;;;8.20
69435;BMP180;56625;54.322;18.582;2024-02-23T04:47:30;98167.80;;;8.20
69435;BMP180;56625;54.322;18.582;2024-02-23T04:49:58;98170.20;;;8.20
69435;BMP180;56625;54.322;18.582;2024-02-23T04:52:27;98176.40;;;8.20
69435;BMP180;56625;54.322;18.582;2024-02-23T04:54:55;98179.40;;;8.22
69435;BMP180;56625;54.322;18.582;2024-02-23T04:57:23;98187.20;;;8.30
69435;BMP180;56625;54.322;18.582;2024-02-23T04:59:52;98193.00;;;8.30
69435;BMP180;56625;54.322;18.582;2024-02-23T05:02:20;98191.20;;;8.30
69435;BMP180;56625;54.322;18.582;2024-02-23T05:04:48;98190.00;;;8.40
69435;BMP180;56625;54.322;18.582;2024-02-23T05:07:17;98189.00;;;8.40
69435;BMP180;56625;54.322;18.582;2024-02-23T05:09:45;98199.80;;;8.40
69435;BMP180;56625;54.322;18.582;2024-02-23T05:12:13;98201.40;;;8.40
69435;BMP180;56625;54.322;18.582;2024-02-23T05:14:41;98203.80;;;8.46
69435;BMP180;56625;54.322;18.582;2024-02-23T05:17:09;98214.00;;;8.50
69435;BMP180;56625;54.322;18.582;2024-02-23T05:19:38;98208.00;;;8.50
69435;BMP180;56625;54.322;18.582;2024-02-23T05:22:06;98212.00;;;8.56
69435;BMP180;56625;54.322;18.582;2024-02-23T05:24:34;98210.60;;;8.60
69435;BMP180;56625;54.322;18.582;2024-02-23T05:27:02;98215.80;;;8.60
69435;BMP180;56625;54.322;18.582;2024-02-23T05:29:30;98222.80;;;8.60
69435;BMP180;56625;54.322;18.582;2024-02-23T05:31:59;98223.60;;;8.60
69435;BMP180;56625;54.322;18.582;2024-02-23T05:34:28;98229.40;;;8.70
69435;BMP180;56625;54.322;18.582;2024-02-23T05:36:56;98219.60;;;8.70
69435;BMP180;56625;54.322;18.582;2024-02-23T05:39:24;98225.40;;;8.70
69435;BMP180;56625;54.322;18.582;2024-02-23T05:41:52;98230.60;;;8.70
69435;BMP180;56625;54.322;18.582;2024-02-23T05:44:20;98238.40;;;8.78
69435;BMP180;56625;54.322;18.582;2024-02-23T05:46:50;98246.20;;;8.80
69435;BMP180;56625;54.322;18.582;2024-02-23T05:49:18;98246.40;;;8.80
69435;BMP180;56625;54.322;18.582;2024-02-23T05:51:46;98262.20;;;8.80
69435;BMP180;56625;54.322;18.582;2024-02-23T05:54:14;98268.80;;;8.90
69435;BMP180;56625;54.322;18.582;2024-02-23T05:56:44;98264.80;;;8.90
69435;BMP180;56625;54.322;18.582;2024-02-23T05:59:12;98258.20;;;8.90
69435;BMP180;56625;54.322;18.582;2024-02-23T06:01:41;98262.60;;;8.90
69435;BMP180;56625;54.322;18.582;2024-02-23T06:04:09;98260.60;;;8.90
69435;BMP180;56625;54.322;18.582;2024-02-23T06:06:37;98264.00;;;8.90
69435;BMP180;56625;54.322;18.582;2024-02-23T06:09:06;98267.00;;;8.90
69435;BMP180;56625;54.322;18.582;2024-02-23T06:11:34;98266.80;;;8.90
69435;BMP180;56625;54.322;18.582;2024-02-23T06:14:02;98268.00;;;8.90
69435;BMP180;56625;54.322;18.582;2024-02-23T06:16:31;98273.20;;;8.90
69435;BMP180;56625;54.322;18.582;2024-02-23T06:18:59;98276.40;;;8.96
69435;BMP180;56625;54.322;18.582;2024-02-23T06:21:29;98283.60;;;9.00
69435;BMP180;56625;54.322;18.582;2024-02-23T06:23:57;98290.80;;;9.00
69435;BMP180;56625;54.322;18.582;2024-02-23T06:26:25;98295.80;;;9.00
69435;BMP180;56625;54.322;18.582;2024-02-23T06:28:53;98298.80;;;9.08
69435;BMP180;56625;54.322;18.582;2024-02-23T06:31:22;98307.20;;;9.10
69435;BMP180;56625;54.322;18.582;2024-02-23T06:33:50;98320.00;;;9.10
69435;BMP180;56625;54.322;18.582;2024-02-23T06:36:20;98320.20;;;9.18
69435;BMP180;56625;54.322;18.582;2024-02-23T06:38:48;98318.80;;;9.20
69435;BMP180;56625;54.322;18.582;2024-02-23T06:41:16;98326.20;;;9.20
69435;BMP180;56625;54.322;18.582;2024-02-23T06:43:45;98334.00;;;9.24
69435;BMP180;56625;54.322;18.582;2024-02-23T06:46:13;98334.20;;;9.30
69435;BMP180;56625;54.322;18.582;2024-02-23T06:48:41;98344.60;;;9.30
69435;BMP180;56625;54.322;18.582;2024-02-23T06:51:09;98351.60;;;9.30
69435;BMP180;56625;54.322;18.582;2024-02-23T06:53:38;98353.40;;;9.40
69435;BMP180;56625;54.322;18.582;2024-02-23T06:56:06;98367.60;;;9.40
69435;BMP180;56625;54.322;18.582;2024-02-23T06:58:35;98372.00;;;9.40
69435;BMP180;56625;54.322;18.582;2024-02-23T07:01:03;98384.80;;;9.50
69435;BMP180;56625;54.322;18.582;2024-02-23T07:03:33;98388.20;;;9.50
69435;BMP180;56625;54.322;18.582;2024-02-23T07:06:04;98397.80;;;9.50
69435;BMP180;56625;54.322;18.582;2024-02-23T07:08:33;98405.80;;;9.60
69435;BMP180;56625;54.322;18.582;2024-02-23T07:11:01;98410.40;;;9.60
69435;BMP180;56625;54.322;18.582;2024-02-23T07:13:30;98401.80;;;9.70
69435;BMP180;56625;54.322;18.582;2024-02-23T07:16:00;98417.20;;;9.70
69435;BMP180;56625;54.322;18.582;2024-02-23T07:18:28;98420.80;;;9.70
69435;BMP180;56625;54.322;18.582;2024-02-23T07:20:57;98427.80;;;9.80
69435;BMP180;56625;54.322;18.582;2024-02-23T07:23:25;98428.00;;;9.80
69435;BMP180;56625;54.322;18.582;2024-02-23T07:25:53;98430.40;;;9.80
69435;BMP180;56625;54.322;18.582;2024-02-23T07:28:23;98430.40;;;9.86
69435;BMP180;56625;54.322;18.582;2024-02-23T07:30:51;98432.40;;;9.90
69435;BMP180;56625;54.322;18.582;2024-02-23T07:33:21;98438.80;;;9.90
69435;BMP180;56625;54.322;18.582;2024-02-23T07:35:49;98440.00;;;10.00
69435;BMP180;56625;54.322;18.582;2024-02-23T07:38:17;98445.60;;;10.00
69435;BMP180;56625;54.322;18.582;2024-02-23T07:40:48;98453.00;;;10.00
69435;BMP180;56625;54.322;18.582;2024-02-23T07:43:16;98454.80;;;10.04
69435;BMP180;56625;54.322;18.582;2024-02-23T07:45:44;98455.60;;;10.10
69435;BMP180;56625;54.322;18.582;2024-02-23T07:48:12;98458.00;;;10.10
69435;BMP180;56625;54.322;18.582;2024-02-23T07:50:41;98461.60;;;10.10
69435;BMP180;56625;54.322;18.582;2024-02-23T07:53:09;98472.20;;;10.10
69435;BMP180;56625;54.322;18.582;2024-02-23T07:55:38;98477.80;;;10.10
69435;BMP180;56625;54.322;18.582;2024-02-23T07:58:06;98481.00;;;10.18
69435;BMP180;56625;54.322;18.582;2024-02-23T08:00:34;98487.80;;;10.20
69435;BMP180;56625;54.322;18.582;2024-02-23T08:03:06;98490.40;;;10.20
69435;BMP180;56625;54.322;18.582;2024-02-23T08:05:36;98492.60;;;10.24
69435;BMP180;56625;54.322;18.582;2024-02-23T08:08:05;98501.20;;;10.22
69435;BMP180;56625;54.322;18.582;2024-02-23T08:10:35;98503.80;;;10.30
69435;BMP180;56625;54.322;18.582;2024-02-23T08:13:04;98502.80;;;10.30
69435;BMP180;56625;54.322;18.582;2024-02-23T08:15:32;98513.00;;;10.30
69435;BMP180;56625;54.322;18.582;2024-02-23T08:18:00;98518.40;;;10.30
69435;BMP180;56625;54.322;18.582;2024-02-23T08:20:28;98520.00;;;10.30
69435;BMP180;56625;54.322;18.582;2024-02-23T08:22:57;98531.80;;;10.40
69435;BMP180;56625;54.322;18.582;2024-02-23T08:25:28;98540.60;;;10.40
69435;BMP180;56625;54.322;18.582;2024-02-23T08:27:58;98543.80;;;10.40
69435;BMP180;56625;54.322;18.582;2024-02-23T08:30:27;98549.60;;;10.40
69435;BMP180;56625;54.322;18.582;2024-02-23T08:32:55;98551.00;;;10.40
69435;BMP180;56625;54.322;18.582;2024-02-23T08:35:24;98551.60;;;10.40
69435;BMP180;56625;54.322;18.582;2024-02-23T08:37:52;98549.40;;;10.40
69435;BMP180;56625;54.322;18.582;2024-02-23T08:40:20;98546.60;;;10.40
69435;BMP180;56625;54.322;18.582;2024-02-23T08:42:48;98550.60;;;10.40
69435;BMP180;56625;54.322;18.582;2024-02-23T08:45:18;98551.00;;;10.40
69435;BMP180;56625;54.322;18.582;2024-02-23T08:47:46;98558.40;;;10.40
69435;BMP180;56625;54.322;18.582;2024-02-23T08:50:14;98568.20;;;10.40
69435;BMP180;56625;54.322;18.582;2024-02-23T08:52:43;98580.40;;;10.40
69435;BMP180;56625;54.322;18.582;2024-02-23T08:55:11;98591.00;;;10.40
69435;BMP180;56625;54.322;18.582;2024-02-23T08:57:40;98598.20;;;10.40
69435;BMP180;56625;54.322;18.582;2024-02-23T09:00:09;98608.40;;;10.40
69435;BMP180;56625;54.322;18.582;2024-02-23T09:02:37;98619.40;;;10.30
69435;BMP180;56625;54.322;18.582;2024-02-23T09:05:06;98616.60;;;10.30
69435;BMP180;56625;54.322;18.582;2024-02-23T09:07:35;98616.20;;;10.30
69435;BMP180;56625;54.322;18.582;2024-02-23T09:10:05;98630.00;;;10.30
69435;BMP180;56625;54.322;18.582;2024-02-23T09:12:34;98634.80;;;10.30
69435;BMP180;56625;54.322;18.582;2024-02-23T09:15:03;98635.40;;;10.30
69435;BMP180;56625;54.322;18.582;2024-02-23T09:17:33;98642.00;;;10.30
69435;BMP180;56625;54.322;18.582;2024-02-23T09:20:01;98650.00;;;10.22
69435;BMP180;56625;54.322;18.582;2024-02-23T09:22:29;98660.00;;;10.20
69435;BMP180;56625;54.322;18.582;2024-02-23T09:24:57;98664.60;;;10.20
69435;BMP180;56625;54.322;18.582;2024-02-23T09:27:26;98667.00;;;10.20
69435;BMP180;56625;54.322;18.582;2024-02-23T09:29:54;98670.80;;;10.20
69435;BMP180;56625;54.322;18.582;2024-02-23T09:32:22;98683.00;;;10.22
69435;BMP180;56625;54.322;18.582;2024-02-23T09:34:51;98685.20;;;10.28
69435;BMP180;56625;54.322;18.582;2024-02-23T09:37:19;98688.60;;;10.30
69435;BMP180;56625;54.322;18.582;2024-02-23T09:39:47;98688.60;;;10.30
69435;BMP180;56625;54.322;18.582;2024-02-23T09:42:15;98695.60;;;10.32
69435;BMP180;56625;54.322;18.582;2024-02-23T09:44:44;98688.60;;;10.40
69435;BMP180;56625;54.322;18.582;2024-02-23T09:47:14;98684.60;;;10.40
69435;BMP180;56625;54.322;18.582;2024-02-23T09:49:44;98694.80;;;10.40
69435;BMP180;56625;54.322;18.582;2024-02-23T09:52:15;98699.80;;;10.40
69435;BMP180;56625;54.322;18.582;2024-02-23T09:54:45;98703.20;;;10.40
69435;BMP180;56625;54.322;18.582;2024-02-23T09:57:15;98702.00;;;10.40
69435;BMP180;56625;54.322;18.582;2024-02-23T09:59:44;98711.00;;;10.40
69435;BMP180;56625;54.322;18.582;2024-02-23T10:02:17;98709.20;;;10.40
69435;BMP180;56625;54.322;18.582;2024-02-23T10:04:48;98725.80;;;10.50
69435;BMP180;56625;54.322;18.582;2024-02-23T10:07:17;98732.60;;;10.50
69435;BMP180;56625;54.322;18.582;2024-02-23T10:09:46;98738.60;;;10.50
69435;BMP180;56625;54.322;18.582;2024-02-23T10:12:16;98745.00;;;10.50
69435;BMP180;56625;54.322;18.582;2024-02-23T10:14:44;98751.00;;;10.56
69435;BMP180;56625;54.322;18.582;2024-02-23T10:17:13;98766.20;;;10.60
69435;BMP180;56625;54.322;18.582;2024-02-23T10:19:41;98771.60;;;10.52
69435;BMP180;56625;54.322;18.582;2024-02-23T10:22:10;98783.40;;;10.60
69435;BMP180;56625;54.322;18.582;2024-02-23T10:24:38;98797.40;;;10.60
69435;BMP180;56625;54.322;18.582;2024-02-23T10:27:06;98799.00;;;10.60
69435;BMP180;56625;54.322;18.582;2024-02-23T10:29:35;98811.20;;;10.60
69435;BMP180;56625;54.322;18.582;2024-02-23T10:32:06;98819.60;;;10.60
69435;BMP180;56625;54.322;18.582;2024-02-23T10:34:38;98836.20;;;10.60
69435;BMP180;56625;54.322;18.582;2024-02-23T10:37:11;98832.20;;;10.60
69435;BMP180;56625;54.322;18.582;2024-02-23T10:39:40;98839.00;;;10.60
69435;BMP180;56625;54.322;18.582;2024-02-23T10:42:10;98847.60;;;10.64
69435;BMP180;56625;54.322;18.582;2024-02-23T10:44:41;98850.00;;;10.70
69435;BMP180;56625;54.322;18.582;2024-02-23T10:47:11;98851.80;;;10.80
69435;BMP180;56625;54.322;18.582;2024-02-23T10:49:41;98852.20;;;10.90
69435;BMP180;56625;54.322;18.582;2024-02-23T10:52:11;98856.00;;;10.90
69435;BMP180;56625;54.322;18.582;2024-02-23T10:54:42;98859.40;;;11.00
69435;BMP180;56625;54.322;18.582;2024-02-23T10:57:17;98860.00;;;11.10
69435;BMP180;56625;54.322;18.582;2024-02-23T10:59:47;98864.00;;;11.14
69435;BMP180;56625;54.322;18.582;2024-02-23T11:02:20;98871.80;;;11.20
69435;BMP180;56625;54.322;18.582;2024-02-23T11:04:50;98872.60;;;11.20
69435;BMP180;56625;54.322;18.582;2024-02-23T11:07:21;98872.00;;;11.10
69435;BMP180;56625;54.322;18.582;2024-02-23T11:09:52;98886.80;;;11.00
69435;BMP180;56625;54.322;18.582;2024-02-23T11:12:39;98884.40;;;11.00
69435;BMP180;56625;54.322;18.582;2024-02-23T11:15:08;98884.40;;;10.90
69435;BMP180;56625;54.322;18.582;2024-02-23T11:17:37;98882.40;;;10.90
69435;BMP180;56625;54.322;18.582;2024-02-23T11:20:07;98882.20;;;10.82
69435;BMP180;56625;54.322;18.582;2024-02-23T11:22:36;98891.60;;;10.80
69435;BMP180;56625;54.322;18.582;2024-02-23T11:25:08;98899.20;;;10.80
69435;BMP180;56625;54.322;18.582;2024-02-23T11:27:38;98915.00;;;10.80
69435;BMP180;56625;54.322;18.582;2024-02-23T11:30:11;98916.80;;;10.80
69435;BMP180;56625;54.322;18.582;2024-02-23T11:32:46;98918.60;;;10.90
69435;BMP180;56625;54.322;18.582;2024-02-23T11:35:17;98919.00;;;10.82
69435;BMP180;56625;54.322;18.582;2024-02-23T11:37:53;98933.20;;;10.90
69435;BMP180;56625;54.322;18.582;2024-02-23T11:40:32;98935.80;;;10.90
69435;BMP180;56625;54.322;18.582;2024-02-23T11:43:02;98939.60;;;11.00
69435;BMP180;56625;54.322;18.582;2024-02-23T11:45:31;98940.60;;;11.00
69435;BMP180;56625;54.322;18.582;2024-02-23T11:47:59;98938.80;;;11.00
69435;BMP180;56625;54.322;18.582;2024-02-23T11:50:28;98941.60;;;11.08
69435;BMP180;56625;54.322;18.582;2024-02-23T11:52:57;98940.80;;;11.00
69435;BMP180;56625;54.322;18.582;2024-02-23T11:55:26;98944.20;;;11.00
69435;BMP180;56625;54.322;18.582;2024-02-23T11:57:55;98947.80;;;11.04
69435;BMP180;56625;54.322;18.582;2024-02-23T12:00:34;98953.40;;;11.10
69435;BMP180;56625;54.322;18.582;2024-02-23T12:03:04;98955.20;;;11.12
69435;BMP180;56625;54.322;18.582;2024-02-23T12:05:33;98957.40;;;11.10
69435;BMP180;56625;54.322;18.582;2024-02-23T12:08:02;98958.40;;;11.10
69435;BMP180;56625;54.322;18.582;2024-02-23T12:10:31;98966.80;;;11.20
69435;BMP180;56625;54.322;18.582;2024-02-23T12:13:00;98972.80;;;11.30
69435;BMP180;56625;54.322;18.582;2024-02-23T12:15:29;98986.00;;;11.50
69435;BMP180;56625;54.322;18.582;2024-02-23T12:17:58;98981.80;;;11.80
69435;BMP180;56625;54.322;18.582;2024-02-23T12:20:28;98996.00;;;12.00
69435;BMP180;56625;54.322;18.582;2024-02-23T12:22:56;98986.60;;;12.02
69435;BMP180;56625;54.322;18.582;2024-02-23T12:25:25;98991.60;;;12.10
69435;BMP180;56625;54.322;18.582;2024-02-23T12:27:56;98994.80;;;12.10
69435;BMP180;56625;54.322;18.582;2024-02-23T12:30:28;99006.60;;;12.02
69435;BMP180;56625;54.322;18.582;2024-02-23T12:33:06;99013.60;;;11.80
69435;BMP180;56625;54.322;18.582;2024-02-23T12:35:39;99015.40;;;11.70
69435;BMP180;56625;54.322;18.582;2024-02-23T12:38:07;99008.00;;;11.70
69435;BMP180;56625;54.322;18.582;2024-02-23T12:40:36;99008.80;;;11.72
69435;BMP180;56625;54.322;18.582;2024-02-23T12:43:04;99006.20;;;11.70
69435;BMP180;56625;54.322;18.582;2024-02-23T12:45:32;99012.40;;;11.70
69435;BMP180;56625;54.322;18.582;2024-02-23T12:48:00;99016.40;;;11.60
69435;BMP180;56625;54.322;18.582;2024-02-23T12:50:31;99019.40;;;11.60
69435;BMP180;56625;54.322;18.582;2024-02-23T12:52:59;99021.40;;;11.60
69435;BMP180;56625;54.322;18.582;2024-02-23T12:55:29;99020.20;;;11.68
69435;BMP180;56625;54.322;18.582;2024-02-23T12:57:57;99026.40;;;11.70
69435;BMP180;56625;54.322;18.582;2024-02-23T13:00:25;99036.20;;;11.70
69435;BMP180;56625;54.322;18.582;2024-02-23T13:02:54;99024.20;;;11.70
69435;BMP180;56625;54.322;18.582;2024-02-23T13:05:22;99021.80;;;11.60
69435;BMP180;56625;54.322;18.582;2024-02-23T13:07:51;99028.20;;;11.58
69435;BMP180;56625;54.322;18.582;2024-02-23T13:10:19;99031.20;;;11.60
69435;BMP180;56625;54.322;18.582;2024-02-23T13:12:48;99030.20;;;11.68
69435;BMP180;56625;54.322;18.582;2024-02-23T13:15:17;99029.60;;;11.70
69435;BMP180;56625;54.322;18.582;2024-02-23T13:17:48;99036.20;;;11.60
69435;BMP180;56625;54.322;18.582;2024-02-23T13:20:17;99040.60;;;11.50
69435;BMP180;56625;54.322;18.582;2024-02-23T13:22:45;99050.00;;;11.42
69435;BMP180;56625;54.322;18.582;2024-02-23T13:25:13;99066.20;;;11.40
69435;BMP180;56625;54.322;18.582;2024-02-23T13:27:41;99083.00;;;11.30
69435;BMP180;56625;54.322;18.582;2024-02-23T13:30:10;99092.40;;;11.20
69435;BMP180;56625;54.322;18.582;2024-02-23T13:32:40;99096.40;;;11.14
69435;BMP180;56625;54.322;18.582;2024-02-23T13:35:08;99109.00;;;11.00
69435;BMP180;56625;54.322;18.582;2024-02-23T13:37:36;99110.00;;;10.90
69435;BMP180;56625;54.322;18.582;2024-02-23T13:40:06;99119.40;;;10.88
69435;BMP180;56625;54.322;18.582;2024-02-23T13:42:37;99125.40;;;10.80
69435;BMP180;56625;54.322;18.582;2024-02-23T13:45:08;99136.00;;;10.70
69435;BMP180;56625;54.322;18.582;2024-02-23T13:47:36;99139.60;;;10.64
69435;BMP180;56625;54.322;18.582;2024-02-23T13:50:06;99146.20;;;10.70
69435;BMP180;56625;54.322;18.582;2024-02-23T13:52:35;99153.40;;;10.60
69435;BMP180;56625;54.322;18.582;2024-02-23T13:55:04;99157.40;;;10.60
69435;BMP180;56625;54.322;18.582;2024-02-23T13:57:33;99158.80;;;10.50
69435;BMP180;56625;54.322;18.582;2024-02-23T14:00:03;99159.40;;;10.50
69435;BMP180;56625;54.322;18.582;2024-02-23T14:02:34;99162.40;;;10.50
69435;BMP180;56625;54.322;18.582;2024-02-23T14:05:04;99165.60;;;10.50
69435;BMP180;56625;54.322;18.582;2024-02-23T14:07:36;99168.20;;;10.44
69435;BMP180;56625;54.322;18.582;2024-02-23T14:10:06;99171.60;;;10.40
69435;BMP180;56625;54.322;18.582;2024-02-23T14:12:34;99186.00;;;10.40